Time;durP1;ratioP1;P1;durP2;ratioP2;P2;SDS_P1;SDS_P2;PMS_P1;PMS_P2;Temp;Humidity;BMP_temperature;BMP_pressure;BME280_temperature;BME280_humidity;BME280_pressure;Samples;Min_cycle;Max_cycle;Signal;HPM_P1;HPM_P2
2023/01/26 12:42:02;;;;;;;;;37.00;31.00;;;;;5.59;69.03;102272.47;2309254;24;2871458;-84
2023/01/26 13:02:53;;;;;;;;;30.67;25.00;;;;;5.51;70.03;102243.66;2285315;24;3594988;-82
2023/01/26 16:39:43;;;;;;;;;28.33;25.33;;;;;6.10;74.33;102289.59;2443723;22;3577669;-86
2023/01/26 16:43:21;;;;;;;;;32.00;29.00;;;;;6.15;74.14;102292.28;2473537;22;2852299;-86
2023/01/26 17:03:24;;;;;;;;;30.00;28.50;;;;;6.32;74.20;102304.63;2378983;23;2842985;-86
2023/01/26 17:20:22;;;;;;;;;30.00;27.50;;;;;6.56;73.88;102313.56;2255184;24;2850218;-86
2023/01/26 18:02:51;;;;;;;;;;;;;;;;;;;;;
2023/01/26 18:06:37;;;;;;;;;23.33;19.17;;;;;6.98;71.73;102324.38;2411336;23;1838843;-86
2023/01/26 18:10:10;;;;;;;;;19.00;16.50;;;;;6.97;71.63;102320.88;2367465;23;2821091;-86
2023/01/26 18:14:20;;;;;;;;;19.17;16.33;;;;;7.02;70.74;102327.88;2375719;23;1829073;-86
2023/01/26 18:39:18;;;;;;;;;16.00;11.50;;;;;7.04;67.05;102326.16;1820892;22;15970152;-86
2023/01/26 18:41:14;;;;;;;;;13.67;13.00;;;;;7.07;67.03;102320.94;2486614;22;3510603;-86
2023/01/26 18:44:59;;;;;;;;;;;;;;;;;;;;;
2023/01/26 18:48:23;;;;;;;;;13.67;13.00;;;;;7.15;66.12;102321.88;2486257;22;3525693;-85
2023/01/26 18:49:52;;;;;;;;;12.83;8.00;;;;;7.12;65.60;102324.47;2573527;22;2746088;-86
2023/01/26 18:51:49;;;;;;;;;;;;;;;;;;;;;
2023/01/26 18:53:42;;;;;;;;;;;;;;;;;;;;;
2023/01/26 18:54:54;;;;;;;;;13.25;10.50;;;;;7.13;64.59;102321.00;2555126;22;1841911;-85
2023/01/26 18:56:47;;;;;;;;;;;;;;;;;;;;;
2023/01/26 18:58:06;;;;;;;;;18.00;12.00;;;;;7.14;65.17;102317.50;2533971;22;2798122;-86
2023/01/26 18:59:20;;;;;;;;;14.50;14.00;;;;;7.14;65.12;102324.47;2495152;22;2784947;-85
2023/01/26 19:00:35;;;;;;;;;17.50;16.00;;;;;7.15;65.04;102321.88;2526957;22;2825248;-86
2023/01/26 19:01:49;;;;;;;;;15.00;14.25;;;;;7.13;65.49;102322.75;2523168;22;1851270;-86
2023/01/26 19:03:09;;;;;;;;;14.50;10.00;;;;;7.14;63.48;102327.09;2514474;22;2789833;-85
2023/01/26 19:04:25;;;;;;;;;13.00;9.25;;;;;7.12;64.46;102319.25;2547637;22;1846022;-87
2023/01/26 19:05:47;;;;;;;;;14.50;12.00;;;;;7.12;64.90;102321.84;2536567;22;2808539;-86
2023/01/26 19:07:48;;;;;;;;;13.00;11.75;;;;;7.08;64.72;102313.13;2513377;22;1840364;-86
2023/01/26 19:11:11;;;;;;;;;12.00;11.00;;;;;7.12;65.38;102324.47;2507365;22;1843978;-86
2023/01/26 19:15:30;;;;;;;;;12.33;7.67;;;;;7.11;65.20;102317.50;2557644;22;1835609;-86
2023/01/26 19:16:50;;;;;;;;;9.33;9.33;;;;;7.14;64.90;102325.34;2464465;22;2771039;-86
2023/01/26 19:20:19;;;;;;;;;13.50;10.00;;;;;7.14;64.57;102324.47;2490830;22;2781476;-86
2023/01/26 19:25:03;;;;;;;;;;;;;;;;;;;;;
2023/01/26 19:26:53;;;;;;;;;15.00;10.25;;;;;7.15;64.67;102319.28;2429368;22;1835622;-86
2023/01/26 19:28:24;;;;;;;;;14.00;12.50;;;;;7.16;65.07;102313.16;2474767;22;2808539;-85
2023/01/26 19:29:35;;;;;;;;;12.00;11.00;;;;;7.21;65.22;102307.97;2492694;22;2779716;-83
2023/01/26 19:30:47;;;;;;;;;15.20;12.40;;;;;7.22;64.46;102314.06;2549964;22;1829413;-84
2023/01/26 19:31:57;;;;;;;;;18.50;14.50;;;;;7.24;64.70;102317.56;2526227;22;2810627;-83
2023/01/26 19:33:23;;;;;;;;;11.50;11.50;;;;;7.25;64.61;102320.22;2557065;22;2787721;-84
2023/01/26 19:34:34;;;;;;;;;13.00;8.00;;;;;7.25;64.14;102314.09;2525410;22;3475199;-84
2023/01/26 19:35:45;;;;;;;;;15.00;15.00;;;;;7.26;64.39;102321.94;2528687;22;3525181;-84
2023/01/26 19:36:57;;;;;;;;;10.50;10.00;;;;;7.24;64.54;102317.56;2537541;22;1834088;-83
2023/01/26 19:38:08;;;;;;;;;13.75;11.00;;;;;7.23;64.05;102311.47;2542901;22;1860638;-84
2023/01/26 19:39:19;;;;;;;;;19.00;13.50;;;;;7.23;64.06;102318.44;2533962;22;2804368;-84
2023/01/26 19:40:33;;;;;;;;;5.00;5.00;;;;;7.23;64.35;102311.47;2571910;22;2728357;-84
2023/01/26 19:41:48;;;;;;;;;13.67;9.00;;;;;7.23;64.39;102313.22;2523275;22;3482510;-84
2023/01/26 19:42:59;;;;;;;;;17.50;13.00;;;;;7.24;64.39;102323.69;2524605;22;2793969;-83
2023/01/26 19:44:12;;;;;;;;;15.80;12.00;;;;;7.22;64.54;102316.69;2575193;22;1829436;-83
2023/01/26 19:45:23;;;;;;;;;17.00;15.00;;;;;7.19;64.36;102315.81;2520031;22;2817964;-83
2023/01/26 19:46:34;;;;;;;;;13.50;12.50;;;;;7.18;64.30;102315.81;2498882;22;2797108;-83
2023/01/26 19:47:45;;;;;;;;;12.50;10.00;;;;;7.17;63.87;102312.31;2509221;22;2786692;-83
2023/01/26 19:48:56;;;;;;;;;8.00;8.00;;;;;7.15;64.25;102319.28;2568167;22;2741859;-83
2023/01/26 19:50:07;;;;;;;;;14.50;13.50;;;;;7.14;63.99;102320.13;2535169;22;2797033;-83
2023/01/26 19:51:24;;;;;;;;;18.00;16.00;;;;;7.14;64.48;102324.47;2505464;22;2816864;-84
2023/01/26 19:52:34;;;;;;;;;14.50;13.50;;;;;7.09;64.55;102320.09;2494260;22;2793944;-83
2023/01/26 19:53:48;;;;;;;;;17.33;15.00;;;;;7.08;64.72;102318.38;2556122;22;2821151;-83
2023/01/26 19:54:58;;;;;;;;;16.50;14.00;;;;;7.05;64.71;102320.94;2519962;22;2818951;-84
2023/01/26 19:56:16;;;;;;;;;14.60;13.20;;;;;7.02;64.87;102312.19;2526425;22;1835657;-82
2023/01/26 19:57:30;;;;;;;;;14.50;12.50;;;;;7.01;64.94;102313.94;2534632;22;2800190;-83
2023/01/26 19:58:42;;;;;;;;;19.50;14.00;;;;;7.02;64.49;102312.19;2534715;22;2815890;-83
2023/01/26 19:59:53;;;;;;;;;16.50;14.00;;;;;7.02;64.62;102320.91;2488669;22;2798138;-83
2023/01/26 20:01:10;;;;;;;;;16.50;14.50;;;;;7.01;64.98;102315.69;2523159;22;2806512;-83
2023/01/26 20:02:21;;;;;;;;;17.50;14.50;;;;;7.03;64.73;102316.56;2491987;22;2815890;-83
2023/01/26 20:03:33;;;;;;;;;15.50;15.00;;;;;7.02;64.84;102322.66;2514524;22;2812702;-83
2023/01/26 20:04:44;;;;;;;;;14.00;12.67;;;;;7.01;64.85;102319.19;2523190;22;1841839;-83
2023/01/26 20:05:54;;;;;;;;;16.50;15.00;;;;;7.00;65.05;102321.75;2508759;22;2810630;-83
2023/01/26 20:07:06;;;;;;;;;16.50;15.00;;;;;7.01;65.01;102320.91;2547896;22;2808542;-83
2023/01/26 20:08:17;;;;;;;;;18.00;14.50;;;;;7.00;65.41;102319.16;2520776;22;2807485;-83
2023/01/26 20:09:31;;;;;;;;;16.60;15.00;;;;;6.99;65.14;102318.28;2526619;22;1827321;-83
2023/01/26 20:10:42;;;;;;;;;15.00;14.00;;;;;7.00;65.20;102319.16;2534337;22;2798123;-83
2023/01/26 20:11:53;;;;;;;;;13.00;9.00;;;;;7.00;65.07;102319.16;2522715;22;2764766;-83
2023/01/26 20:13:05;;;;;;;;;16.60;15.40;;;;;7.00;65.46;102319.16;2569427;22;1829426;-83
2023/01/26 20:14:15;;;;;;;;;12.50;11.00;;;;;7.01;65.38;102321.78;2521254;22;2786684;-83
2023/01/26 20:15:34;;;;;;;;;15.50;13.50;;;;;7.02;65.47;102328.75;2543698;22;2805757;-85
2023/01/26 20:16:48;;;;;;;;;20.00;14.00;;;;;7.01;65.76;102323.53;2535498;22;2814809;-84
2023/01/26 20:18:07;;;;;;;;;15.00;15.00;;;;;6.99;65.80;102315.66;2534854;22;2806506;-84
2023/01/26 20:19:18;;;;;;;;;12.00;8.50;;;;;7.02;65.77;102320.03;2493064;22;2768948;-83
2023/01/26 20:20:42;;;;;;;;;16.80;13.20;;;;;6.97;65.44;102310.44;2561810;22;1829424;-83
2023/01/26 20:21:54;;;;;;;;;15.50;14.00;;;;;6.98;65.71;102312.19;2492111;22;2821449;-83
2023/01/26 20:23:17;;;;;;;;;20.00;12.00;;;;;6.99;65.80;102315.66;2493989;22;3542951;-83
2023/01/26 20:24:28;;;;;;;;;13.50;10.50;;;;;7.00;65.69;102314.81;2534642;22;2784586;-83
2023/01/26 20:25:50;;;;;;;;;15.67;12.00;;;;;7.04;66.25;102315.69;2560626;22;1829441;-83
2023/01/26 20:27:03;;;;;;;;;16.50;10.50;;;;;7.05;65.58;102320.06;2495626;22;2800313;-83
2023/01/26 20:28:17;;;;;;;;;13.50;12.00;;;;;7.02;65.96;102312.19;2540151;22;1843988;-84
2023/01/26 20:29:28;;;;;;;;;15.75;13.75;;;;;7.03;65.92;102308.72;2541174;22;1840869;-82
2023/01/26 20:30:52;;;;;;;;;12.50;12.00;;;;;7.04;66.07;102315.69;2534673;22;2787725;-84
2023/01/26 20:32:03;;;;;;;;;13.25;13.00;;;;;7.04;66.13;102327.03;2552672;22;1839776;-83
2023/01/26 20:33:16;;;;;;;;;13.50;12.00;;;;;7.04;65.79;102320.91;2521520;22;2783600;-83
2023/01/26 20:34:44;;;;;;;;;15.50;12.50;;;;;7.04;65.87;102320.91;2510262;22;2796036;-84
2023/01/26 20:35:55;;;;;;;;;15.00;12.75;;;;;7.05;65.60;102327.91;2531728;22;1841855;-84
2023/01/26 20:37:16;;;;;;;;;13.00;10.00;;;;;7.08;66.11;102325.31;2528055;22;1850228;-83
2023/01/26 20:38:35;;;;;;;;;10.50;10.50;;;;;7.05;65.66;102312.22;2531288;22;1844043;-83
2023/01/26 20:39:46;;;;;;;;;10.00;10.00;;;;;7.06;65.86;102320.06;2509193;22;2784618;-83
2023/01/26 20:40:58;;;;;;;;;18.00;13.00;;;;;7.08;65.98;102322.72;2545335;22;1834601;-84
2023/01/26 20:42:16;;;;;;;;;17.50;15.00;;;;;7.07;65.79;102323.56;2469051;22;2801255;-84
2023/01/26 20:43:26;;;;;;;;;17.50;15.50;;;;;7.07;65.89;102323.56;2511966;22;2807505;-83
2023/01/26 20:44:41;;;;;;;;;17.40;14.40;;;;;7.06;65.46;102319.22;2544851;22;1826302;-83
2023/01/26 20:45:54;;;;;;;;;19.00;14.50;;;;;7.06;65.98;102319.22;2511528;22;2821062;-83
2023/01/26 20:47:07;;;;;;;;;18.50;15.50;;;;;7.04;65.75;102323.53;2494357;22;2795036;-83
2023/01/26 20:48:25;;;;;;;;;18.33;16.00;;;;;7.04;65.73;102320.91;2518937;22;1827309;-83
2023/01/26 20:49:46;;;;;;;;;21.00;17.50;;;;;7.04;65.70;102315.69;2482266;22;2834576;-84
2023/01/26 20:51:01;;;;;;;;;14.00;13.00;;;;;7.05;65.83;102320.06;2480664;22;2802321;-84
2023/01/26 20:52:13;;;;;;;;;19.67;19.00;;;;;7.03;65.47;102329.63;2498450;22;3568965;-83
2023/01/26 20:53:23;;;;;;;;;17.50;15.00;;;;;7.05;66.03;102325.28;2514771;22;2808566;-83
2023/01/26 20:54:37;;;;;;;;;25.50;16.50;;;;;7.04;66.02;102327.03;2500497;22;2849167;-83
2023/01/26 20:55:58;;;;;;;;;18.00;16.00;;;;;7.06;65.81;102324.44;2479045;22;2817340;-84
2023/01/26 20:57:11;;;;;;;;;17.00;16.50;;;;;7.04;65.95;102315.69;2489083;22;1856477;-83
2023/01/26 20:58:23;;;;;;;;;18.67;17.00;;;;;7.05;65.84;102318.34;2497890;22;3568960;-83
2023/01/26 20:59:38;;;;;;;;;16.00;16.00;;;;;7.05;65.66;102315.72;2508952;22;2810734;-84
2023/01/26 21:00:49;;;;;;;;;19.33;18.33;;;;;7.07;65.78;102320.94;2511486;22;3564802;-84
2023/01/26 21:02:14;;;;;;;;;17.50;14.00;;;;;7.05;65.93;102318.34;2536634;22;2799193;-83
2023/01/26 21:03:26;;;;;;;;;19.67;16.00;;;;;7.08;65.81;102325.31;2491904;22;2824279;-83
2023/01/26 21:04:46;;;;;;;;;15.50;13.00;;;;;7.08;65.73;102312.25;2521892;22;2796063;-83
2023/01/26 21:05:57;;;;;;;;;18.50;17.00;;;;;7.05;65.62;102309.59;2507938;22;2820001;-84
2023/01/26 21:07:20;;;;;;;;;23.80;18.20;;;;;7.04;65.79;102313.06;2499359;22;1841340;-84
2023/01/26 21:08:35;;;;;;;;;17.67;14.17;;;;;7.03;65.73;102313.94;2508152;22;1833701;-83
2023/01/26 21:09:48;;;;;;;;;20.83;19.67;;;;;7.01;65.72;102307.84;2504480;22;1844052;-83
2023/01/26 21:11:02;;;;;;;;;18.67;17.33;;;;;7.02;65.56;102313.06;2469255;22;2824164;-83
2023/01/26 21:12:14;;;;;;;;;19.33;19.33;;;;;7.00;65.86;102311.31;2510773;22;2834282;-83
2023/01/26 21:13:26;;;;;;;;;20.00;16.67;;;;;6.99;65.68;102307.81;2508655;22;2829465;-83
2023/01/26 21:14:37;;;;;;;;;16.50;16.00;;;;;6.99;65.38;102302.59;2497663;22;2821035;-82
2023/01/26 21:15:50;;;;;;;;;21.33;17.00;;;;;6.97;65.19;102310.44;2500934;22;2822168;-83
2023/01/26 21:17:01;;;;;;;;;20.67;16.00;;;;;6.96;65.27;102299.97;2498504;22;3568877;-83
2023/01/26 21:18:15;;;;;;;;;17.00;13.00;;;;;6.97;65.88;102318.28;2513765;22;2807508;-83
2023/01/26 21:19:32;;;;;;;;;19.00;19.00;;;;;6.96;65.63;102311.28;2511389;22;3557452;-83
2023/01/26 21:21:06;;;;;;;;;;;;;;;;;;;;;
2023/01/26 21:22:19;;;;;;;;;16.00;16.00;;;;;6.95;65.55;102306.94;2512754;22;2813751;-84
2023/01/26 21:23:40;;;;;;;;;19.67;17.50;;;;;6.97;65.85;102320.88;2528885;22;1835760;-83
2023/01/26 21:24:53;;;;;;;;;18.00;15.50;;;;;6.96;65.30;102311.28;2480576;22;2816852;-83
2023/01/26 21:26:11;;;;;;;;;15.00;13.00;;;;;6.98;65.55;102306.06;2486662;22;1851222;-83
2023/01/26 21:27:21;;;;;;;;;19.00;16.00;;;;;6.97;65.30;102313.03;2498763;22;2825196;-83
2023/01/26 21:28:36;;;;;;;;;20.00;17.00;;;;;6.98;65.51;102312.19;2489553;22;2825216;-83
2023/01/26 21:29:46;;;;;;;;;18.00;17.50;;;;;6.94;65.34;102310.41;2479978;22;2829375;-83
2023/01/26 21:31:16;;;;;;;;;17.50;16.00;;;;;6.95;65.32;102311.28;2513008;22;2822123;-82
2023/01/26 21:32:29;;;;;;;;;21.00;16.40;;;;;6.94;65.45;102310.41;2547197;22;2817865;-83
2023/01/26 21:33:51;;;;;;;;;15.00;14.00;;;;;6.93;65.65;102313.00;2513300;22;2801239;-84
2023/01/26 21:35:22;;;;;;;;;19.50;15.00;;;;;6.91;65.21;102305.16;2492817;22;2810661;-83
2023/01/26 21:36:36;;;;;;;;;13.00;12.00;;;;;6.88;65.33;102304.25;2477141;22;2789834;-86
2023/01/26 21:37:49;;;;;;;;;17.00;10.00;;;;;6.89;65.50;102293.78;2511202;22;2803342;-84
2023/01/26 21:42:53;;;;;;;;;13.33;12.67;;;;;6.90;65.42;102297.28;2522522;22;3511710;-83
2023/01/26 21:44:11;;;;;;;;;14.00;13.00;;;;;6.85;66.09;102292.03;2526841;22;2791900;-84
2023/01/26 21:47:04;;;;;;;;;15.00;13.00;;;;;6.91;65.91;102305.16;2514954;22;2802322;-83
2023/01/26 21:48:30;;;;;;;;;16.50;13.50;;;;;6.94;65.67;102299.09;2509054;22;2791910;-84
2023/01/26 21:49:41;;;;;;;;;19.50;15.00;;;;;6.93;65.68;102297.31;2500407;22;2814786;-83
2023/01/26 21:53:56;;;;;;;;;9.00;9.00;;;;;6.91;65.90;102302.56;2523751;22;3474183;-83
2023/01/26 21:55:07;;;;;;;;;14.00;11.33;;;;;6.90;65.97;102294.69;2527453;22;3511632;-83
2023/01/26 21:56:24;;;;;;;;;14.00;14.00;;;;;6.91;65.50;102299.94;2509839;22;2791881;-84
2023/01/26 21:59:10;;;;;;;;;10.67;8.00;;;;;6.90;65.71;102295.56;2535279;22;1835621;-84
2023/01/26 22:00:24;;;;;;;;;14.25;11.75;;;;;6.93;65.87;102297.31;2513161;22;1841905;-83
2023/01/26 22:01:38;;;;;;;;;12.25;10.00;;;;;6.93;65.52;102300.81;2541092;22;1839787;-84
2023/01/26 22:02:53;;;;;;;;;10.00;10.00;;;;;6.92;65.69;102293.81;2523041;22;3513743;-84
2023/01/26 22:04:06;;;;;;;;;12.67;10.67;;;;;6.91;65.76;102293.81;2522248;22;3507528;-84
2023/01/26 22:05:17;;;;;;;;;13.50;10.00;;;;;6.90;65.72;102290.34;2508357;22;2775714;-83
2023/01/26 22:06:29;;;;;;;;;14.25;9.75;;;;;6.92;65.86;102298.16;2546136;22;1833605;-82
2023/01/26 22:07:47;;;;;;;;;15.67;10.00;;;;;6.91;66.18;102299.94;2522128;22;3526222;-83
2023/01/26 22:08:59;;;;;;;;;12.25;8.75;;;;;6.91;66.17;102288.59;2528670;22;1824285;-82
2023/01/26 22:10:23;;;;;;;;;13.33;10.67;;;;;6.94;65.56;102291.25;2497769;22;3505378;-83
2023/01/26 22:11:34;;;;;;;;;13.00;8.00;;;;;6.92;65.46;102288.59;2502217;22;2763854;-83
2023/01/26 22:12:55;;;;;;;;;;;;;;;;;;;;;
2023/01/26 22:14:30;;;;;;;;;9.67;8.33;;;;;6.90;65.71;102281.59;2556387;22;2732988;-84
2023/01/26 22:15:54;;;;;;;;;10.67;7.00;;;;;6.92;66.09;102292.94;2482029;22;2757564;-84
2023/01/26 22:17:28;;;;;;;;;4.83;4.83;;;;;6.93;65.93;102287.75;2545805;22;2725302;-84
2023/01/26 22:18:38;;;;;;;;;12.33;8.33;;;;;6.92;65.68;102293.81;2515646;22;3474130;-83
2023/01/26 22:19:49;;;;;;;;;13.67;12.00;;;;;6.91;66.01;102284.25;2521963;22;3508548;-83
2023/01/26 22:21:01;;;;;;;;;12.67;8.00;;;;;6.94;65.89;102284.25;2524618;22;3485599;-83
2023/01/26 22:22:15;;;;;;;;;11.33;7.00;;;;;6.95;66.07;102290.34;2532971;22;2759024;-83
2023/01/26 22:23:38;;;;;;;;;;;;;;;;;;;;;
2023/01/26 22:24:50;;;;;;;;;7.33;7.33;;;;;6.92;65.83;102285.09;2513275;22;2731581;-83
2023/01/26 22:26:18;;;;;;;;;9.17;6.50;;;;;6.97;66.37;102284.28;2544652;22;2735645;-84
2023/01/26 22:27:28;;;;;;;;;9.33;7.67;;;;;6.98;66.06;102290.41;2474071;22;2744010;-83
2023/01/26 22:28:43;;;;;;;;;10.67;7.67;;;;;6.98;66.25;102286.03;2531853;22;2754838;-83
2023/01/26 22:29:57;;;;;;;;;10.75;9.25;;;;;7.00;65.93;102282.53;2541637;22;1837244;-83
2023/01/26 22:31:09;;;;;;;;;14.67;10.00;;;;;7.00;66.05;102272.97;2522076;22;3510586;-84
2023/01/26 22:32:25;;;;;;;;;8.83;7.17;;;;;7.01;66.00;102279.97;2543513;22;2738762;-83
2023/01/26 22:33:38;;;;;;;;;10.17;8.33;;;;;7.01;65.78;102279.09;2534281;22;2757881;-83
2023/01/26 22:34:57;;;;;;;;;9.50;7.33;;;;;7.01;66.09;102281.69;2514975;22;2749214;-84
2023/01/26 22:36:12;;;;;;;;;10.33;8.00;;;;;7.00;66.15;102272.97;2515054;22;2767357;-83
2023/01/26 22:37:28;;;;;;;;;12.00;9.00;;;;;6.99;65.99;102273.81;2521651;22;3485627;-84
2023/01/26 22:38:39;;;;;;;;;11.67;7.00;;;;;7.02;65.76;102275.59;2511364;22;2758544;-84
2023/01/26 22:40:21;;;;;;;;;6.25;6.25;;;;;7.02;65.71;102275.59;2531864;22;2742949;-83
2023/01/26 22:41:36;;;;;;;;;7.33;6.50;;;;;7.01;65.91;102279.09;2539266;22;2740866;-83
2023/01/26 22:42:56;;;;;;;;;9.00;8.67;;;;;6.98;65.87;102275.59;2501537;22;2752358;-84
2023/01/26 22:44:23;;;;;;;;;;;;;;;;;;;;;
2023/01/26 22:48:13;;;;;;;;;;;;;;;;;;;;;
2023/01/26 22:51:56;;;;;;;;;;;;;;;;;;;;;
2023/01/26 22:53:14;;;;;;;;;8.67;7.00;;;;;6.99;65.96;102276.44;2392911;23;3440859;-84
2023/01/26 22:54:30;;;;;;;;;7.00;7.00;;;;;7.01;65.95;102281.69;2431710;23;2741924;-85
2023/01/26 22:56:27;;;;;;;;;11.33;9.00;;;;;7.05;66.26;102283.47;2400165;23;3492943;-85
2023/01/26 22:57:43;;;;;;;;;5.50;5.50;;;;;7.07;65.93;102281.72;2508688;22;2741923;-84
2023/01/26 22:59:24;;;;;;;;;11.00;9.67;;;;;7.07;66.18;102279.13;2454488;22;3491904;-83
2023/01/26 23:00:39;;;;;;;;;12.33;6.33;;;;;7.08;66.05;102275.66;2484327;22;3483580;-84
2023/01/26 23:01:52;;;;;;;;;7.67;7.50;;;;;7.07;65.74;102273.88;2516984;22;2747115;-83
2023/01/26 23:03:02;;;;;;;;;10.00;8.00;;;;;7.07;65.76;102279.13;2472914;22;2749827;-83
2023/01/26 23:06:46;;;;;;;;;;;;;;;;;;;;;
2023/01/26 23:11:32;;;;;;;;;10.83;7.50;;;;;7.13;66.14;102271.31;2517374;22;2748141;-83
2023/01/26 23:13:07;;;;;;;;;;;;;;;;;;;;;
2023/01/26 23:14:51;;;;;;;;;6.17;6.17;;;;;7.15;65.91;102274.81;2555273;22;2736726;-84
2023/01/26 23:16:04;;;;;;;;;10.33;8.50;;;;;7.13;65.94;102271.31;2557182;22;2743959;-83
2023/01/26 23:17:20;;;;;;;;;8.17;8.17;;;;;7.14;65.84;102272.19;2514648;22;2741905;-83
2023/01/26 23:18:43;;;;;;;;;;;;;;;;;;;;;
2023/01/26 23:20:02;;;;;;;;;13.67;8.33;;;;;7.12;65.72;102274.78;2513541;22;2766972;-84
2023/01/26 23:21:15;;;;;;;;;8.00;5.17;;;;;7.13;65.93;102273.06;2545126;22;2733565;-83
2023/01/26 23:22:54;;;;;;;;;6.83;5.67;;;;;7.12;65.61;102264.31;2545960;22;2746102;-84
2023/01/26 23:24:09;;;;;;;;;9.33;5.00;;;;;7.11;65.83;102275.66;2557293;22;2761697;-84
2023/01/26 23:26:58;;;;;;;;;6.00;5.50;;;;;7.08;65.75;102266.06;2558129;22;2748163;-84
2023/01/26 23:28:08;;;;;;;;;10.00;6.00;;;;;7.14;65.66;102270.44;2512184;22;2768964;-83
2023/01/26 23:29:19;;;;;;;;;5.33;5.33;;;;;7.10;65.96;102260.84;2542975;22;2750231;-83
2023/01/26 23:30:54;;;;;;;;;13.17;7.33;;;;;7.16;66.16;102265.25;2518618;22;2749177;-84
2023/01/26 23:34:06;;;;;;;;;14.33;8.33;;;;;7.11;66.01;102257.38;2524763;22;2769113;-84
2023/01/26 23:35:36;;;;;;;;;9.33;7.33;;;;;7.14;65.98;102264.31;2556692;22;2748145;-84
2023/01/26 23:37:01;;;;;;;;;10.67;7.67;;;;;7.15;65.98;102261.75;2544477;22;2755460;-84
2023/01/26 23:38:19;;;;;;;;;9.83;7.00;;;;;7.16;65.70;102263.47;2507743;22;2751292;-83
2023/01/26 23:40:02;;;;;;;;;8.00;6.00;;;;;7.17;65.68;102266.97;2547954;22;2735629;-84
2023/01/26 23:41:49;;;;;;;;;;;;;;;;;;;;;
2023/01/26 23:43:54;;;;;;;;;;;;;;;;;;;;;
2023/01/26 23:45:08;;;;;;;;;5.67;4.00;;;;;7.20;65.82;102265.25;2472145;22;2741978;-84
2023/01/26 23:46:30;;;;;;;;;7.00;6.00;;;;;7.19;65.42;102260.88;2510653;22;3462192;-84
2023/01/26 23:48:06;;;;;;;;;5.17;4.67;;;;;7.15;65.56;102256.50;2548836;22;2746038;-84
2023/01/26 23:50:09;;;;;;;;;;;;;;;;;;;;;
2023/01/26 23:51:53;;;;;;;;;;;;;;;;;;;;;
2023/01/26 23:53:09;;;;;;;;;9.00;5.50;;;;;7.24;65.83;102254.78;2555303;22;2750204;-83
2023/01/26 23:54:40;;;;;;;;;6.83;6.83;;;;;7.25;65.46;102251.31;2558580;22;2746045;-84
2023/01/26 23:55:51;;;;;;;;;7.67;6.00;;;;;7.25;65.53;102256.56;2526021;22;2748190;-83
2023/01/26 23:57:36;;;;;;;;;4.75;4.75;;;;;7.21;65.38;102255.66;2556753;22;2750208;-84
2023/01/26 23:59:01;;;;;;;;;0.33;0.17;;;;;7.22;65.06;102248.69;2494853;22;2729427;-83
